Hinesburg, Vermont
Current Conditions -  °F | °C
As of 12:54 PM on Friday 28 Nov 2014 (Local Time) from KBTV Reporting Station
Broken Clouds Broken Clouds  
Wind Chill: 19°   Ceiling: 3700
Heat Index: 28°   Visibility: 10mi
Dew Point: 14°   Wind: 9mph
Humidity: 56%   Direction: 270°W
Pressure: 30.09"   Gusts: NA
Location:  44.33°N, 73.11°W
Report Text: KBTV 281754Z 27008KT 10SM BKN037 BKN043 M02/M10 A3009 RMK AO2 SLP194 4/005 60000 T10221100 11011 21039 58011
Loading
Personal Weather Stations






























Interactive Weather Map New forecast layout! Learn more

10-Day Weather Forecast

Advertisements
Track Severe Weather on mobile